createdAt,value
2023-04-27T00:00:51.215Z,53.03
2023-04-27T00:05:58.896Z,53.05
2023-04-27T00:11:06.412Z,53.15
2023-04-27T00:16:13.728Z,52.97
2023-04-27T00:21:21.133Z,53.02
2023-04-27T00:26:28.590Z,53.05
2023-04-27T00:31:35.837Z,53.06
2023-04-27T00:36:43.113Z,53.08
2023-04-27T00:41:50.259Z,53.05
2023-04-27T00:46:57.665Z,53.10
2023-04-27T00:52:04.601Z,53.12
2023-04-27T00:57:12.090Z,53.09
2023-04-27T01:02:19.637Z,53.09
2023-04-27T01:07:28.753Z,53.12
2023-04-27T01:12:36.085Z,53.10
2023-04-27T01:17:44.052Z,53.15
2023-04-27T01:22:51.198Z,53.03
2023-04-27T01:27:58.724Z,53.05
2023-04-27T01:33:06.064Z,53.11
2023-04-27T01:38:13.541Z,53.00
2023-04-27T01:43:20.632Z,52.97
2023-04-27T01:48:27.832Z,53.05
2023-04-27T01:53:35.272Z,53.08
2023-04-27T01:58:42.585Z,52.98
2023-04-27T02:03:49.761Z,53.02
2023-04-27T02:08:57.310Z,53.05
2023-04-27T02:14:04.654Z,53.12
2023-04-27T02:19:12.132Z,52.99
2023-04-27T02:24:19.369Z,53.10
2023-04-27T02:29:26.946Z,53.08
2023-04-27T02:34:34.092Z,53.15
2023-04-27T02:39:41.683Z,53.08
2023-04-27T02:44:49.107Z,53.15
2023-04-27T02:49:56.009Z,53.06
2023-04-27T02:55:03.218Z,53.08
2023-04-27T03:00:11.897Z,53.15
2023-04-27T03:05:19.222Z,53.19
2023-04-27T03:10:26.407Z,53.09
2023-04-27T03:15:33.827Z,53.09
2023-04-27T03:20:41.661Z,53.06
2023-04-27T03:25:49.623Z,53.01
2023-04-27T03:30:56.737Z,53.09
2023-04-27T03:36:04.802Z,53.10
2023-04-27T03:41:12.190Z,53.12
2023-04-27T03:46:19.649Z,53.10
2023-04-27T03:51:27.399Z,53.05
2023-04-27T03:56:34.696Z,52.95
2023-04-27T04:01:41.912Z,53.18
2023-04-27T04:06:49.120Z,53.12
2023-04-27T04:11:56.096Z,53.00
2023-04-27T04:17:03.309Z,52.96
2023-04-27T04:22:10.588Z,53.01
2023-04-27T04:27:18.010Z,52.99
2023-04-27T04:32:25.107Z,53.09
2023-04-27T04:37:32.489Z,53.05
2023-04-27T04:42:39.777Z,52.99
2023-04-27T04:47:47.662Z,53.02
2023-04-27T04:52:54.771Z,52.92
2023-04-27T04:58:02.087Z,52.93
2023-04-27T05:03:09.277Z,52.85
2023-04-27T05:08:17.476Z,52.75
2023-04-27T05:13:25.189Z,52.78
2023-04-27T05:18:32.409Z,52.83
2023-04-27T05:23:39.629Z,52.67
2023-04-27T05:28:47.405Z,52.70
2023-04-27T05:33:54.950Z,52.65
2023-04-27T05:39:01.927Z,52.71
2023-04-27T05:44:09.023Z,52.76
2023-04-27T05:49:16.395Z,52.81
2023-04-27T05:54:23.861Z,52.88
2023-04-27T05:59:31.301Z,52.91
2023-04-27T06:04:39.026Z,52.81
2023-04-27T06:09:46.781Z,52.73
2023-04-27T06:14:54.151Z,52.83
2023-04-27T06:20:01.626Z,52.99
2023-04-27T06:25:09.626Z,52.96
2023-04-27T06:30:17.179Z,52.91
2023-04-27T06:35:24.165Z,52.81
2023-04-27T06:40:31.420Z,52.77
2023-04-27T06:45:38.562Z,52.83
2023-04-27T06:50:45.803Z,52.88
2023-04-27T06:55:53.307Z,52.77
2023-04-27T07:01:01.139Z,52.86
2023-04-27T07:06:08.699Z,52.95
2023-04-27T07:11:16.789Z,52.94
2023-04-27T07:16:24.001Z,52.96
2023-04-27T07:21:32.200Z,52.76
2023-04-27T07:26:39.970Z,52.83
2023-04-27T07:31:47.117Z,53.06
2023-04-27T07:36:55.820Z,52.98
2023-04-27T07:42:03.626Z,52.70
2023-04-27T07:47:11.073Z,52.81
2023-04-27T07:52:18.513Z,52.77
2023-04-27T07:57:25.704Z,52.67
2023-04-27T08:02:35.083Z,52.71
2023-04-27T08:07:44.758Z,52.65
2023-04-27T08:12:52.521Z,52.43
2023-04-27T08:17:59.946Z,52.41
2023-04-27T08:23:07.427Z,52.33
2023-04-27T08:28:15.045Z,52.39
2023-04-27T08:33:22.495Z,52.23
2023-04-27T08:38:30.152Z,52.37
2023-04-27T08:43:37.727Z,52.34
2023-04-27T08:48:44.548Z,52.35
2023-04-27T08:53:52.518Z,52.45
2023-04-27T08:59:00.173Z,52.42
2023-04-27T09:04:08.204Z,52.40
2023-04-27T09:09:24.033Z,52.27
2023-04-27T09:14:35.921Z,52.21
2023-04-27T09:19:43.478Z,52.27
2023-04-27T09:24:57.178Z,52.30
2023-04-27T09:30:14.077Z,52.32
2023-04-27T09:35:23.085Z,52.21
2023-04-27T09:40:31.771Z,52.27
2023-04-27T09:45:39.985Z,52.42
2023-04-27T09:50:47.782Z,52.34
2023-04-27T09:56:01.818Z,52.26
2023-04-27T10:01:13.035Z,52.14
2023-04-27T10:06:39.577Z,51.79
2023-04-27T10:11:48.260Z,51.66
2023-04-27T10:16:55.960Z,51.44
2023-04-27T10:22:04.195Z,51.79
2023-04-27T10:27:12.715Z,51.96
2023-04-27T10:32:23.692Z,51.86
2023-04-27T10:37:40.522Z,51.96
2023-04-27T10:42:49.845Z,51.87
2023-04-27T10:47:59.895Z,52.00
2023-04-27T10:53:08.552Z,51.96
2023-04-27T10:58:16.143Z,52.15
2023-04-27T11:03:25.584Z,51.44
2023-04-27T11:08:33.107Z,51.29
2023-04-27T11:13:40.165Z,51.62
2023-04-27T11:18:47.391Z,51.67
2023-04-27T11:23:55.227Z,51.78
2023-04-27T11:29:05.736Z,51.60
2023-04-27T11:34:19.375Z,51.57
2023-04-27T11:39:28.934Z,51.58
2023-04-27T11:44:36.502Z,51.69
2023-04-27T11:49:48.414Z,51.82
2023-04-27T11:54:56.883Z,51.87
2023-04-27T12:00:11.660Z,51.78
2023-04-27T12:05:20.379Z,51.78
2023-04-27T12:10:27.520Z,51.80
2023-04-27T12:15:34.653Z,51.92
2023-04-27T12:20:42.298Z,51.81
2023-04-27T12:25:49.661Z,51.52
2023-04-27T12:30:57.182Z,51.61
2023-04-27T12:36:04.488Z,51.63
2023-04-27T12:41:11.781Z,51.66
2023-04-27T12:46:19.699Z,51.60
2023-04-27T12:51:26.670Z,51.68
2023-04-27T12:56:33.927Z,51.64
2023-04-27T13:01:41.202Z,51.48
2023-04-27T13:06:48.490Z,51.76
2023-04-27T13:11:56.008Z,51.02
2023-04-27T13:17:04.718Z,51.54
2023-04-27T13:22:12.285Z,51.84
2023-04-27T13:27:20.761Z,51.62
2023-04-27T13:32:28.203Z,51.63
2023-04-27T13:37:35.336Z,51.62
2023-04-27T13:42:42.506Z,51.71
2023-04-27T13:47:49.867Z,51.75
2023-04-27T13:52:57.116Z,51.70
2023-04-27T13:58:03.989Z,51.40
2023-04-27T14:03:12.313Z,51.83
2023-04-27T14:08:20.090Z,51.76
2023-04-27T14:13:27.714Z,51.90
2023-04-27T14:18:35.210Z,51.69
2023-04-27T14:23:42.792Z,51.79
2023-04-27T14:28:49.930Z,51.85
2023-04-27T14:33:58.620Z,51.72
2023-04-27T14:39:07.186Z,51.85
2023-04-27T14:44:14.162Z,51.60
2023-04-27T14:49:21.459Z,51.92
2023-04-27T14:54:29.944Z,51.68
2023-04-27T14:59:37.461Z,51.50
2023-04-27T15:04:45.113Z,51.64
2023-04-27T15:09:52.708Z,51.82
2023-04-27T15:14:59.924Z,51.83
2023-04-27T15:20:07.819Z,51.95
2023-04-27T15:25:14.832Z,51.93
2023-04-27T15:30:21.866Z,51.81
2023-04-27T15:35:29.058Z,51.92
2023-04-27T15:40:36.981Z,51.95
2023-04-27T15:45:44.538Z,51.95
2023-04-27T15:50:51.805Z,52.07
2023-04-27T15:55:58.829Z,52.13
2023-04-27T16:01:06.277Z,52.07
2023-04-27T16:06:13.509Z,52.16
2023-04-27T16:11:20.451Z,52.02
2023-04-27T16:16:27.913Z,51.78
2023-04-27T16:21:35.224Z,51.97
2023-04-27T16:26:42.685Z,52.01
2023-04-27T16:31:53.285Z,52.04
2023-04-27T16:37:00.947Z,52.06
2023-04-27T16:42:08.553Z,52.10
2023-04-27T16:47:15.724Z,52.27
2023-04-27T16:52:22.907Z,52.16
2023-04-27T16:57:30.225Z,52.22
2023-04-27T17:02:37.575Z,52.47
2023-04-27T17:07:45.077Z,52.49
2023-04-27T17:12:52.257Z,52.64
2023-04-27T17:18:00.090Z,52.49
2023-04-27T17:23:07.654Z,52.53
2023-04-27T17:28:15.107Z,52.58
2023-04-27T17:33:22.506Z,52.86
2023-04-27T17:38:29.781Z,52.75
2023-04-27T17:43:38.375Z,52.80
2023-04-27T17:48:45.877Z,52.74
2023-04-27T17:53:53.293Z,52.79
2023-04-27T17:59:00.470Z,52.88
2023-04-27T18:04:08.091Z,52.68
2023-04-27T18:09:16.386Z,52.90
2023-04-27T18:14:24.033Z,52.80
2023-04-27T18:19:31.662Z,52.91
2023-04-27T18:24:39.493Z,52.84
2023-04-27T18:29:47.001Z,52.86
2023-04-27T18:34:54.325Z,52.94
2023-04-27T18:40:01.431Z,52.93
2023-04-27T18:45:10.226Z,52.79
2023-04-27T18:50:17.892Z,52.84
2023-04-27T18:55:25.076Z,52.88
2023-04-27T19:00:32.468Z,52.75
2023-04-27T19:05:40.995Z,52.68
2023-04-27T19:10:48.584Z,52.79
2023-04-27T19:15:56.300Z,52.82
2023-04-27T19:21:03.544Z,52.84
2023-04-27T19:26:13.617Z,52.84
2023-04-27T19:31:21.629Z,52.81
2023-04-27T19:36:29.668Z,52.85
2023-04-27T19:41:37.096Z,52.75
2023-04-27T19:46:44.333Z,52.81
2023-04-27T19:51:51.628Z,52.84
2023-04-27T19:56:58.762Z,52.72
2023-04-27T20:02:06.077Z,52.94
2023-04-27T20:07:13.283Z,52.72
2023-04-27T20:12:43.378Z,52.61
2023-04-27T20:17:47.850Z,52.79
2023-04-27T20:22:55.127Z,52.80
2023-04-27T20:28:02.276Z,52.80
2023-04-27T20:33:09.402Z,52.77
2023-04-27T20:38:16.778Z,52.73
2023-04-27T20:43:24.811Z,52.75
2023-04-27T20:48:32.007Z,52.80
2023-04-27T20:53:39.060Z,52.83
2023-04-27T20:58:46.438Z,52.85
2023-04-27T21:03:54.019Z,52.78
2023-04-27T21:09:01.419Z,52.82
2023-04-27T21:14:08.708Z,52.74
2023-04-27T21:19:16.852Z,52.77
2023-04-27T21:24:24.440Z,52.76
2023-04-27T21:29:32.452Z,52.62
2023-04-27T21:34:39.800Z,52.71
2023-04-27T21:39:47.021Z,52.65
2023-04-27T21:44:55.490Z,52.62
2023-04-27T21:50:03.375Z,52.65
2023-04-27T21:55:11.416Z,52.64
2023-04-27T22:00:19.504Z,52.68
2023-04-27T22:05:29.689Z,52.74
2023-04-27T22:10:37.127Z,52.72
2023-04-27T22:15:44.553Z,52.66
2023-04-27T22:20:52.115Z,52.67
2023-04-27T22:25:58.995Z,52.71
2023-04-27T22:31:06.238Z,52.73
2023-04-27T22:36:13.906Z,52.57
2023-04-27T22:41:21.379Z,52.61
2023-04-27T22:46:29.007Z,52.58
2023-04-27T22:51:36.969Z,52.62
2023-04-27T22:56:44.038Z,52.60
2023-04-27T23:01:51.341Z,52.63
2023-04-27T23:06:59.249Z,52.51
2023-04-27T23:12:08.184Z,52.53
2023-04-27T23:17:15.726Z,52.58
2023-04-27T23:22:22.811Z,52.46
2023-04-27T23:27:30.197Z,52.67
2023-04-27T23:32:37.621Z,52.60
2023-04-27T23:37:44.731Z,52.59
2023-04-27T23:42:52.943Z,52.75
2023-04-27T23:48:00.375Z,52.54
2023-04-27T23:53:07.906Z,52.52
2023-04-27T23:58:15.079Z,52.66
